createdAt,value
2017-09-12T00:00:56.872Z,10.45
2017-09-12T00:02:07.551Z,10.45
2017-09-12T00:03:18.115Z,10.47
2017-09-12T00:04:28.551Z,10.4
2017-09-12T00:05:39.052Z,10.4
2017-09-12T00:06:49.226Z,10.36
2017-09-12T00:07:59.670Z,10.45
2017-09-12T00:09:09.808Z,10.48
2017-09-12T00:10:20.260Z,10.45
2017-09-12T00:11:30.679Z,10.39
2017-09-12T00:12:40.711Z,10.48
2017-09-12T00:13:51.137Z,10.42
2017-09-12T00:15:01.579Z,10.45
2017-09-12T00:16:12.248Z,10.45
2017-09-12T00:17:22.692Z,10.4
2017-09-12T00:18:32.801Z,10.37
2017-09-12T00:19:42.916Z,10.39
2017-09-12T00:20:53.356Z,10.4
2017-09-12T00:22:03.909Z,10.4
2017-09-12T00:23:14.038Z,10.42
2017-09-12T00:24:24.500Z,10.4
2017-09-12T00:25:35.166Z,10.34
2017-09-12T00:26:45.730Z,10.39
2017-09-12T00:27:56.187Z,10.4
2017-09-12T00:29:06.665Z,10.37
2017-09-12T00:30:17.122Z,10.32
2017-09-12T00:31:27.590Z,10.27
2017-09-12T00:32:38.038Z,10.27
2017-09-12T00:33:48.492Z,10.26
2017-09-12T00:34:58.625Z,10.22
2017-09-12T00:36:09.095Z,10.39
2017-09-12T00:37:19.587Z,10.26
2017-09-12T00:38:29.798Z,10.24
2017-09-12T00:39:40.252Z,10.26
2017-09-12T00:40:50.687Z,10.33
2017-09-12T00:42:01.112Z,10.34
2017-09-12T00:43:11.806Z,10.34
2017-09-12T00:44:22.236Z,10.21
2017-09-12T00:45:32.366Z,10.29
2017-09-12T00:46:43.024Z,10.33
2017-09-12T00:47:53.439Z,10.32
2017-09-12T00:49:04.138Z,10.33
2017-09-12T00:50:14.613Z,10.33
2017-09-12T00:51:25.040Z,10.3
2017-09-12T00:52:35.149Z,10.3
2017-09-12T00:53:45.591Z,10.29
2017-09-12T00:54:56.461Z,10.36
2017-09-12T00:56:06.650Z,10.33
2017-09-12T00:57:17.107Z,10.32
2017-09-12T00:58:27.584Z,10.29
2017-09-12T00:59:37.997Z,10.29
2017-09-12T01:00:48.694Z,10.32
2017-09-12T01:01:59.120Z,10.34
2017-09-12T01:03:09.627Z,10.3
2017-09-12T01:04:20.160Z,10.3
2017-09-12T01:05:30.589Z,10.32
2017-09-12T01:06:41.305Z,10.29
2017-09-12T01:07:51.727Z,10.29
2017-09-12T01:09:02.176Z,10.34
2017-09-12T01:10:12.614Z,10.34
2017-09-12T01:11:23.099Z,10.34
2017-09-12T01:12:33.766Z,10.29
2017-09-12T01:13:44.219Z,10.34
2017-09-12T01:14:54.794Z,10.3
2017-09-12T01:16:05.219Z,10.39
2017-09-12T01:17:15.357Z,10.29
2017-09-12T01:18:25.885Z,10.33
2017-09-12T01:19:36.314Z,10.26
2017-09-12T01:20:46.764Z,10.34
2017-09-12T01:21:57.223Z,10.34
2017-09-12T01:23:07.801Z,10.34
2017-09-12T01:24:18.593Z,10.39
2017-09-12T01:25:28.706Z,10.3
2017-09-12T01:26:38.833Z,10.33
2017-09-12T01:27:49.282Z,10.29
2017-09-12T01:28:59.835Z,10.3
2017-09-12T01:30:10.585Z,10.27
2017-09-12T01:31:20.810Z,10.22
2017-09-12T01:32:31.233Z,10.24
2017-09-12T01:33:41.565Z,10.21
2017-09-12T01:34:51.999Z,10.27
2017-09-12T01:36:02.702Z,10.24
2017-09-12T01:37:13.128Z,10.3
2017-09-12T01:38:23.563Z,10.27
2017-09-12T01:39:34.153Z,10.27
2017-09-12T01:40:44.566Z,10.26
2017-09-12T01:41:55.242Z,10.33
2017-09-12T01:43:05.694Z,10.39
2017-09-12T01:44:16.156Z,10.39
2017-09-12T01:45:26.223Z,10.4
2017-09-12T01:46:36.640Z,10.39
2017-09-12T01:47:47.315Z,10.39
2017-09-12T01:48:57.877Z,10.37
2017-09-12T01:50:08.304Z,10.39
2017-09-12T01:51:18.747Z,10.52
2017-09-12T01:52:28.737Z,10.5
2017-09-12T01:53:39.406Z,10.57
2017-09-12T01:54:49.919Z,10.55
2017-09-12T01:57:16.479Z,10.57
2017-09-12T01:58:33.168Z,10.57
2017-09-12T01:59:43.544Z,10.65
2017-09-12T02:00:53.976Z,10.67
2017-09-12T02:02:04.406Z,10.69
2017-09-12T02:03:14.827Z,10.75
2017-09-12T02:04:25.714Z,10.69
2017-09-12T02:05:36.144Z,10.67
2017-09-12T02:06:46.580Z,10.75
2017-09-12T02:07:57.011Z,10.69
2017-09-12T02:09:07.114Z,10.7
2017-09-12T02:10:17.850Z,10.8
2017-09-12T02:11:28.282Z,10.7
2017-09-12T02:12:38.709Z,10.67
2017-09-12T02:13:49.296Z,10.7
2017-09-12T02:14:59.745Z,10.67
2017-09-12T02:16:10.668Z,10.65
2017-09-12T02:17:21.115Z,10.66
2017-09-12T02:18:31.616Z,10.72
2017-09-12T02:19:41.729Z,10.67
2017-09-12T02:20:52.156Z,10.55
2017-09-12T02:22:02.859Z,10.58
2017-09-12T02:23:13.312Z,10.58
2017-09-12T02:24:23.757Z,10.58
2017-09-12T02:25:34.198Z,10.58
2017-09-12T02:26:44.630Z,10.55
2017-09-12T02:27:54.565Z,10.65
2017-09-12T02:29:05.258Z,10.57
2017-09-12T02:30:15.708Z,10.57
2017-09-12T02:31:26.135Z,10.54
2017-09-12T02:32:36.700Z,10.54
2017-09-12T02:33:47.380Z,10.5
2017-09-12T02:34:57.827Z,10.45
2017-09-12T02:36:07.810Z,10.43
2017-09-12T02:37:18.247Z,10.48
2017-09-12T02:38:28.800Z,10.4
2017-09-12T02:39:39.494Z,10.43
2017-09-12T02:40:50.007Z,10.39
2017-09-12T02:42:00.471Z,10.4
2017-09-12T02:43:10.902Z,10.39
2017-09-12T02:44:22.313Z,10.37
2017-09-12T02:45:33.026Z,10.34
2017-09-12T02:46:43.446Z,10.39
2017-09-12T02:47:54.020Z,10.33
2017-09-12T02:49:04.469Z,10.37
2017-09-12T02:50:14.941Z,10.34
2017-09-12T02:51:25.626Z,10.34
2017-09-12T02:52:36.190Z,10.37
2017-09-12T02:53:46.610Z,10.37
2017-09-12T02:54:57.044Z,10.32
2017-09-12T02:56:07.462Z,10.33
2017-09-12T02:57:19.140Z,10.34
2017-09-12T02:58:29.571Z,10.4
2017-09-12T02:59:40.004Z,10.43
2017-09-12T03:00:50.452Z,10.34
2017-09-12T03:02:00.907Z,10.4
2017-09-12T03:03:11.588Z,10.37
2017-09-12T03:04:22.217Z,10.43
2017-09-12T03:05:32.903Z,10.4
2017-09-12T03:06:43.307Z,10.43
2017-09-12T03:07:53.766Z,10.48
2017-09-12T03:09:04.449Z,10.42
2017-09-12T03:10:14.971Z,10.48
2017-09-12T03:11:25.386Z,10.5
2017-09-12T03:12:35.939Z,10.45
2017-09-12T03:13:45.970Z,10.45
2017-09-12T03:14:56.706Z,10.47
2017-09-12T03:16:06.824Z,10.45
2017-09-12T03:17:17.248Z,10.47
2017-09-12T03:18:27.681Z,10.51
2017-09-12T03:19:38.118Z,10.45
2017-09-12T03:20:48.506Z,10.4
2017-09-12T03:21:58.950Z,10.45
2017-09-12T03:23:09.372Z,10.48
2017-09-12T03:24:19.787Z,10.39
2017-09-12T03:25:29.927Z,10.45
2017-09-12T03:26:40.615Z,10.39
2017-09-12T03:27:51.042Z,10.43
2017-09-12T03:29:01.491Z,10.47
2017-09-12T03:30:11.184Z,10.36
2017-09-12T03:31:21.640Z,10.39
2017-09-12T03:32:32.385Z,10.34
2017-09-12T03:33:42.526Z,10.4
2017-09-12T03:34:53.018Z,10.33
2017-09-12T03:36:03.451Z,10.36
2017-09-12T03:37:13.574Z,10.29
2017-09-12T03:38:23.921Z,10.33
2017-09-12T03:39:34.409Z,10.29
2017-09-12T03:40:44.861Z,10.24
2017-09-12T03:41:55.001Z,10.27
2017-09-12T03:43:05.120Z,10.26
2017-09-12T03:44:15.829Z,10.29
2017-09-12T03:45:26.468Z,10.24
2017-09-12T03:46:36.886Z,10.29
2017-09-12T03:47:47.377Z,10.34
2017-09-12T03:48:57.802Z,10.42
2017-09-12T03:50:08.507Z,10.37
2017-09-12T03:51:18.925Z,10.29
2017-09-12T03:52:29.466Z,10.3
2017-09-12T03:53:39.910Z,10.29
2017-09-12T03:54:50.364Z,10.26
2017-09-12T03:56:01.045Z,10.37
2017-09-12T03:57:11.468Z,10.3
2017-09-12T03:58:21.819Z,10.27
2017-09-12T03:59:32.511Z,10.3
2017-09-12T04:00:42.918Z,10.3
2017-09-12T04:01:53.606Z,10.3
2017-09-12T04:03:04.061Z,10.37
2017-09-12T04:04:14.479Z,10.29
2017-09-12T04:05:24.949Z,10.29
2017-09-12T04:06:35.373Z,10.32
2017-09-12T04:07:45.649Z,10.26
2017-09-12T04:08:56.167Z,10.26
2017-09-12T04:10:06.621Z,10.37
2017-09-12T04:11:16.681Z,10.21
2017-09-12T04:12:27.114Z,10.29
2017-09-12T04:13:37.823Z,10.26
2017-09-12T04:14:48.284Z,10.27
2017-09-12T04:15:58.712Z,10.37
2017-09-12T04:17:09.157Z,10.34
2017-09-12T04:18:19.585Z,10.34
2017-09-12T04:19:30.522Z,10.34
2017-09-12T04:20:40.964Z,10.39
2017-09-12T04:21:51.119Z,10.39
2017-09-12T04:23:01.098Z,10.37
2017-09-12T04:24:11.539Z,10.37
2017-09-12T04:25:22.314Z,10.4
2017-09-12T04:26:32.531Z,10.4
2017-09-12T04:27:42.953Z,10.39
2017-09-12T04:28:53.387Z,10.43
2017-09-12T04:30:03.523Z,10.37
2017-09-12T04:31:14.333Z,10.37
2017-09-12T04:32:24.988Z,10.4
2017-09-12T04:33:35.405Z,10.39
2017-09-12T04:34:45.815Z,10.34
2017-09-12T04:35:56.265Z,10.4
2017-09-12T04:37:06.937Z,10.43
2017-09-12T04:38:17.377Z,10.51
2017-09-12T04:39:27.487Z,10.5
2017-09-12T04:40:38.152Z,10.43
2017-09-12T04:41:48.566Z,10.39
2017-09-12T04:42:58.939Z,10.5
2017-09-12T04:44:09.385Z,10.48
2017-09-12T04:45:19.856Z,10.42
2017-09-12T04:46:30.322Z,10.51
2017-09-12T04:47:40.847Z,10.51
2017-09-12T04:48:51.212Z,10.48
2017-09-12T04:50:01.627Z,10.59
2017-09-12T04:51:11.766Z,10.52
2017-09-12T04:52:22.262Z,10.54
2017-09-12T04:53:32.692Z,10.54
2017-09-12T04:54:42.963Z,10.58
2017-09-12T04:55:53.107Z,10.58
2017-09-12T04:57:03.540Z,10.55
2017-09-12T04:58:14.073Z,10.57
2017-09-12T04:59:24.501Z,10.63
2017-09-12T05:00:34.892Z,10.7
2017-09-12T05:01:45.324Z,10.67
2017-09-12T05:02:55.786Z,10.66
2017-09-12T05:04:06.248Z,10.7
2017-09-12T05:05:16.693Z,10.73
2017-09-12T05:06:27.388Z,10.69
2017-09-12T05:07:37.849Z,10.7
2017-09-12T05:08:48.300Z,10.76
2017-09-12T05:09:58.716Z,10.87
2017-09-12T05:11:09.172Z,10.69
2017-09-12T05:12:19.893Z,10.84
2017-09-12T05:13:30.386Z,10.75
2017-09-12T05:14:40.909Z,10.77
2017-09-12T05:15:51.327Z,10.84
2017-09-12T05:17:01.756Z,10.8
2017-09-12T05:18:12.509Z,10.87
2017-09-12T05:19:22.697Z,10.84
2017-09-12T05:20:33.129Z,10.84
2017-09-12T05:21:43.549Z,10.84
2017-09-12T05:22:54.044Z,10.85
2017-09-12T05:24:04.730Z,10.88
2017-09-12T05:25:14.843Z,10.88
2017-09-12T05:26:25.278Z,10.88
2017-09-12T05:27:35.254Z,10.9
2017-09-12T05:28:45.365Z,10.91
2017-09-12T05:29:55.756Z,10.97
2017-09-12T05:31:06.193Z,11.05
2017-09-12T05:32:16.641Z,11.06
2017-09-12T05:33:27.081Z,11
2017-09-12T05:34:37.541Z,11.08
2017-09-12T05:35:48.297Z,11.02
2017-09-12T05:36:58.717Z,11.02
2017-09-12T05:38:09.160Z,11.05
2017-09-12T05:39:19.591Z,11.15
2017-09-12T05:40:29.282Z,10.98
2017-09-12T05:41:39.956Z,11.15
2017-09-12T05:42:50.392Z,11.09
2017-09-12T05:44:00.868Z,11.1
2017-09-12T05:45:11.298Z,11.12
2017-09-12T05:46:21.720Z,11.13
2017-09-12T05:47:32.454Z,11.09
2017-09-12T05:48:42.888Z,11.15
2017-09-12T05:49:53.343Z,11.13
2017-09-12T05:51:03.811Z,11.2
2017-09-12T05:52:14.238Z,11.12
2017-09-12T05:53:24.960Z,11.12
2017-09-12T05:54:35.379Z,11.13
2017-09-12T05:55:45.881Z,11.24
2017-09-12T05:56:56.302Z,11.17
2017-09-12T05:58:06.920Z,11.16
2017-09-12T05:59:17.612Z,11.16
2017-09-12T06:00:28.024Z,11.28
2017-09-12T06:01:38.494Z,11.28
2017-09-12T06:02:48.924Z,11.34
2017-09-12T06:03:59.378Z,11.31
2017-09-12T06:05:09.774Z,11.3
2017-09-12T06:06:20.226Z,11.31
2017-09-12T06:07:30.174Z,11.35
2017-09-12T06:08:40.610Z,11.3
2017-09-12T06:09:50.781Z,11.35
2017-09-12T06:11:01.735Z,11.27
2017-09-12T06:12:11.907Z,11.34
2017-09-12T06:13:22.387Z,11.46
2017-09-12T06:14:32.812Z,11.4
2017-09-12T06:15:43.309Z,11.34
2017-09-12T06:16:53.992Z,11.46
2017-09-12T06:18:04.431Z,11.4
2017-09-12T06:19:14.867Z,11.38
2017-09-12T06:20:25.310Z,11.33
2017-09-12T06:21:35.880Z,11.45
2017-09-12T06:22:52.845Z,11.45
2017-09-12T06:24:03.264Z,11.49
2017-09-12T06:25:13.704Z,11.46
2017-09-12T06:26:23.918Z,11.48
2017-09-12T06:27:34.067Z,11.57
2017-09-12T06:28:44.772Z,11.57
2017-09-12T06:29:55.250Z,11.62
2017-09-12T06:31:05.409Z,11.68
2017-09-12T06:32:15.532Z,11.59
2017-09-12T06:33:26.209Z,11.71
2017-09-12T06:34:36.990Z,11.66
2017-09-12T06:35:47.448Z,11.79
2017-09-12T06:36:57.898Z,11.8
2017-09-12T06:38:08.148Z,11.79
2017-09-12T06:39:18.570Z,11.8
2017-09-12T06:40:29.260Z,11.84
2017-09-12T06:41:39.713Z,11.9
2017-09-12T06:42:50.148Z,11.94
2017-09-12T06:44:00.855Z,11.91
2017-09-12T06:45:11.282Z,11.94
2017-09-12T06:46:21.643Z,12.02
2017-09-12T06:47:31.639Z,12.02
2017-09-12T06:48:42.091Z,12.05
2017-09-12T06:49:52.526Z,12.07
2017-09-12T06:51:02.654Z,12.17
2017-09-12T06:52:13.362Z,12.22
2017-09-12T06:53:23.335Z,12.22
2017-09-12T06:54:33.866Z,12.17
2017-09-12T06:55:44.302Z,12.27
2017-09-12T06:56:54.753Z,12.2
2017-09-12T06:58:05.470Z,12.26
2017-09-12T06:59:15.360Z,12.15
2017-09-12T07:00:25.863Z,12.22
2017-09-12T07:01:36.328Z,12.26
2017-09-12T07:02:46.848Z,12.23
2017-09-12T07:03:57.731Z,12.27
2017-09-12T07:05:08.279Z,12.34
2017-09-12T07:06:18.760Z,12.29
2017-09-12T07:07:29.190Z,12.41
2017-09-12T07:08:39.842Z,12.41
2017-09-12T07:09:50.559Z,12.44
2017-09-12T07:11:00.701Z,12.48
2017-09-12T07:12:11.128Z,12.52
2017-09-12T07:13:21.553Z,12.53
2017-09-12T07:14:32.040Z,12.56
2017-09-12T07:15:42.709Z,12.63
2017-09-12T07:16:53.169Z,12.71
2017-09-12T07:18:03.627Z,12.77
2017-09-12T07:19:14.068Z,12.82
2017-09-12T07:20:24.543Z,12.81
2017-09-12T07:21:35.225Z,12.92
2017-09-12T07:22:45.668Z,12.95
2017-09-12T07:23:56.260Z,12.88
2017-09-12T07:25:06.715Z,12.96
2017-09-12T07:26:17.165Z,12.97
2017-09-12T07:27:27.872Z,13.04
2017-09-12T07:28:38.073Z,13.11
2017-09-12T07:29:48.506Z,13.11
2017-09-12T07:30:58.955Z,13.21
2017-09-12T07:32:09.669Z,13.22
2017-09-12T07:33:20.338Z,13.19
2017-09-12T07:34:30.448Z,13.19
2017-09-12T07:35:40.917Z,13.19
2017-09-12T07:36:51.375Z,13.21
2017-09-12T07:38:01.494Z,13.29
2017-09-12T07:39:12.193Z,13.26
2017-09-12T07:40:22.344Z,13.26
2017-09-12T07:41:32.503Z,13.21
2017-09-12T07:42:42.518Z,13.12
2017-09-12T07:43:52.975Z,13.13
2017-09-12T07:45:03.705Z,13.18
2017-09-12T07:46:14.152Z,13.11
2017-09-12T07:47:24.580Z,13.09
2017-09-12T07:48:35.045Z,13.11
2017-09-12T07:49:45.499Z,13.08
2017-09-12T07:50:56.188Z,13.09
2017-09-12T07:52:06.643Z,13.09
2017-09-12T07:53:17.158Z,13.15
2017-09-12T07:54:27.600Z,13.11
2017-09-12T07:55:37.721Z,13.16
2017-09-12T07:56:48.109Z,13.18
2017-09-12T07:57:58.457Z,13.13
2017-09-12T07:59:09.012Z,13.21
2017-09-12T08:00:19.439Z,13.18
2017-09-12T08:01:30.194Z,13.23
2017-09-12T08:02:41.141Z,13.31
2017-09-12T08:03:51.596Z,13.41
2017-09-12T08:05:02.018Z,13.59
2017-09-12T08:06:12.575Z,13.86
2017-09-12T08:07:23.228Z,14.03
2017-09-12T08:08:33.886Z,14.11
2017-09-12T08:09:44.007Z,14.22
2017-09-12T08:10:54.456Z,14.24
2017-09-12T08:12:04.919Z,14.34
2017-09-12T08:13:15.396Z,14.51
2017-09-12T08:14:26.098Z,14.58
2017-09-12T08:15:36.620Z,14.6
2017-09-12T08:16:46.762Z,14.48
2017-09-12T08:17:57.198Z,14.77
2017-09-12T08:19:07.334Z,14.59
2017-09-12T08:20:18.048Z,14.56
2017-09-12T08:21:28.497Z,14.52
2017-09-12T08:22:38.814Z,14.63
2017-09-12T08:23:49.232Z,14.56
2017-09-12T08:24:58.930Z,14.5
2017-09-12T08:26:09.611Z,14.54
2017-09-12T08:27:20.295Z,14.52
2017-09-12T08:28:30.778Z,14.62
2017-09-12T08:29:40.865Z,14.66
2017-09-12T08:30:51.331Z,14.74
2017-09-12T08:32:01.591Z,14.77
2017-09-12T08:33:11.724Z,14.78
2017-09-12T08:34:22.210Z,14.83
2017-09-12T08:35:32.340Z,14.99
2017-09-12T08:36:42.485Z,15.17
2017-09-12T08:37:53.230Z,15.24
2017-09-12T08:39:03.389Z,15.35
2017-09-12T08:40:13.533Z,15.25
2017-09-12T08:41:24.668Z,15.35
2017-09-12T08:42:35.266Z,15.36
2017-09-12T08:43:46.138Z,15.33
2017-09-12T08:44:56.275Z,15.29
2017-09-12T08:46:06.867Z,15.25
2017-09-12T08:47:17.372Z,15.25
2017-09-12T08:48:27.488Z,15.05
2017-09-12T08:49:38.255Z,14.95
2017-09-12T08:50:48.494Z,14.87
2017-09-12T08:51:58.533Z,14.84
2017-09-12T08:53:09.187Z,14.75
2017-09-12T08:54:19.308Z,14.74
2017-09-12T08:55:30.137Z,14.69
2017-09-12T08:56:40.636Z,14.66
2017-09-12T08:57:51.116Z,14.62
2017-09-12T08:59:01.584Z,14.56
2017-09-12T09:00:12.013Z,14.63
2017-09-12T09:01:22.383Z,14.66
2017-09-12T09:02:32.522Z,14.66
2017-09-12T09:03:42.990Z,14.62
2017-09-12T09:04:53.008Z,14.72
2017-09-12T09:06:03.534Z,14.65
2017-09-12T09:07:14.294Z,14.67
2017-09-12T09:08:24.955Z,14.78
2017-09-12T09:09:35.373Z,14.87
2017-09-12T09:10:45.892Z,14.95
2017-09-12T09:11:56.363Z,15
2017-09-12T09:13:07.126Z,15.09
2017-09-12T09:14:17.584Z,15.25
2017-09-12T09:15:28.059Z,15.42
2017-09-12T09:16:38.555Z,15.48
2017-09-12T09:17:48.998Z,15.57
2017-09-12T09:18:59.718Z,15.54
2017-09-12T09:20:10.168Z,15.48
2017-09-12T09:21:20.827Z,15.36
2017-09-12T09:22:31.082Z,15.4
2017-09-12T09:23:41.590Z,15.38
2017-09-12T09:24:52.386Z,15.32
2017-09-12T09:26:02.849Z,15.64
2017-09-12T09:27:12.892Z,15.91
2017-09-12T09:28:23.379Z,15.96
2017-09-12T09:29:33.819Z,15.98
2017-09-12T09:30:44.224Z,15.8
2017-09-12T09:31:54.769Z,15.7
2017-09-12T09:33:05.326Z,15.66
2017-09-12T09:34:15.748Z,15.5
2017-09-12T09:35:26.205Z,15.36
2017-09-12T09:36:36.945Z,15.29
2017-09-12T09:37:47.442Z,15.21
2017-09-12T09:38:58.003Z,15.25
2017-09-12T09:40:08.222Z,15.43
2017-09-12T09:41:18.662Z,15.43
2017-09-12T09:42:29.427Z,15.43
2017-09-12T09:43:39.877Z,15.43
2017-09-12T09:44:50.311Z,15.42
2017-09-12T09:46:00.852Z,15.38
2017-09-12T09:47:11.353Z,15.3
2017-09-12T09:48:22.031Z,15.32
2017-09-12T09:49:32.456Z,15.36
2017-09-12T09:50:42.612Z,15.42
2017-09-12T09:51:52.748Z,15.45
2017-09-12T09:53:03.203Z,15.51
2017-09-12T09:54:13.924Z,15.68
2017-09-12T09:55:24.374Z,15.79
2017-09-12T09:56:34.831Z,15.92
2017-09-12T09:57:45.272Z,16.01
2017-09-12T09:58:55.762Z,16.09
2017-09-12T10:00:06.430Z,16.19
2017-09-12T10:01:16.891Z,16.29
2017-09-12T10:02:27.352Z,16.31
2017-09-12T10:03:37.808Z,16.36
2017-09-12T10:04:48.238Z,16.44
2017-09-12T10:05:58.647Z,16.54
2017-09-12T10:07:09.088Z,16.65
2017-09-12T10:08:19.083Z,16.66
2017-09-12T10:09:29.545Z,16.65
2017-09-12T10:10:39.974Z,16.61
2017-09-12T10:11:50.350Z,16.56
2017-09-12T10:13:00.790Z,16.59
2017-09-12T10:14:11.454Z,16.51
2017-09-12T10:15:21.913Z,16.61
2017-09-12T10:16:32.353Z,16.74
2017-09-12T10:17:43.125Z,16.84
2017-09-12T10:18:53.793Z,16.84
2017-09-12T10:20:04.234Z,16.87
2017-09-12T10:21:14.694Z,16.89
2017-09-12T10:22:24.373Z,16.86
2017-09-12T10:23:34.778Z,16.9
2017-09-12T10:24:45.323Z,16.9
2017-09-12T10:25:55.763Z,16.79
2017-09-12T10:27:06.396Z,16.69
2017-09-12T10:28:16.897Z,16.75
2017-09-12T10:29:27.832Z,16.61
2017-09-12T10:30:38.272Z,16.46
2017-09-12T10:31:48.503Z,16.42
2017-09-12T10:32:58.660Z,16.34
2017-09-12T10:34:09.311Z,16.17
2017-09-12T10:35:19.732Z,16.06
2017-09-12T10:36:30.163Z,15.8
2017-09-12T10:37:40.655Z,15.75
2017-09-12T10:38:51.079Z,15.72
2017-09-12T10:40:01.529Z,15.58
2017-09-12T10:41:12.231Z,15.42
2017-09-12T10:42:22.706Z,15.39
2017-09-12T10:43:33.203Z,15.23
2017-09-12T10:44:43.629Z,15.25
2017-09-12T10:45:54.062Z,15.21
2017-09-12T10:47:04.829Z,15.11
2017-09-12T10:48:15.301Z,15.06
2017-09-12T10:49:25.734Z,15.09
2017-09-12T10:50:36.459Z,15.05
2017-09-12T10:51:47.018Z,15.09
2017-09-12T10:52:57.705Z,15.13
2017-09-12T10:54:07.882Z,15.09
2017-09-12T10:55:18.336Z,15.02
2017-09-12T10:56:28.520Z,14.91
2017-09-12T10:57:38.974Z,14.95
2017-09-12T10:58:49.678Z,14.98
2017-09-12T11:00:00.192Z,14.96
2017-09-12T11:01:10.656Z,14.9
2017-09-12T11:02:20.464Z,14.85
2017-09-12T11:03:30.921Z,14.9
2017-09-12T11:04:41.723Z,14.85
2017-09-12T11:05:52.161Z,14.9
2017-09-12T11:07:02.650Z,14.85
2017-09-12T11:08:12.863Z,14.81
2017-09-12T11:09:23.330Z,14.83
2017-09-12T11:10:34.062Z,14.87
2017-09-12T11:11:44.367Z,14.88
2017-09-12T11:12:54.912Z,14.91
2017-09-12T11:14:05.363Z,14.98
2017-09-12T11:15:15.802Z,14.93
2017-09-12T11:16:26.510Z,15.09
2017-09-12T11:17:37.026Z,15.24
2017-09-12T11:18:47.458Z,15.5
2017-09-12T11:19:57.929Z,15.6
2017-09-12T11:21:08.319Z,15.68
2017-09-12T11:22:18.232Z,15.75
2017-09-12T11:23:29.105Z,15.82
2017-09-12T11:24:39.528Z,15.82
2017-09-12T11:25:49.529Z,15.89
2017-09-12T11:27:00.011Z,15.91
2017-09-12T11:28:09.940Z,15.82
2017-09-12T11:29:20.423Z,15.87
2017-09-12T11:30:30.890Z,15.91
2017-09-12T11:31:41.386Z,15.79
2017-09-12T11:32:51.818Z,15.98
2017-09-12T11:34:02.498Z,16.13
2017-09-12T11:35:12.945Z,16.35
2017-09-12T11:36:23.415Z,16.66
2017-09-12T11:37:34.174Z,16.75
2017-09-12T11:38:44.600Z,16.82
2017-09-12T11:39:55.566Z,16.91
2017-09-12T11:41:06.016Z,16.96
2017-09-12T11:42:15.705Z,17.06
2017-09-12T11:43:25.900Z,17.12
2017-09-12T11:44:36.343Z,17.24
2017-09-12T11:45:47.045Z,17.39
2017-09-12T11:46:57.526Z,17.45
2017-09-12T11:48:07.967Z,17.89
2017-09-12T11:49:18.424Z,18.1
2017-09-12T11:50:28.890Z,18.42
2017-09-12T11:51:39.604Z,18.63
2017-09-12T11:52:50.068Z,18.84
2017-09-12T11:54:00.526Z,19
2017-09-12T11:55:11.003Z,19.25
2017-09-12T11:56:21.431Z,19.67
2017-09-12T11:57:32.157Z,20
2017-09-12T11:58:42.720Z,20.05
2017-09-12T11:59:53.196Z,20.2
2017-09-12T12:01:03.328Z,20.05
2017-09-12T12:02:13.451Z,19.93
2017-09-12T12:03:24.158Z,19.89
2017-09-12T12:04:34.628Z,19.92
2017-09-12T12:05:45.142Z,20.16
2017-09-12T12:06:55.669Z,20.28
2017-09-12T12:08:06.118Z,20.51
2017-09-12T12:09:16.827Z,20.88
2017-09-12T12:10:27.269Z,21.08
2017-09-12T12:11:37.746Z,21.13
2017-09-12T12:12:48.187Z,21.1
2017-09-12T12:13:58.659Z,20.96
2017-09-12T12:15:09.361Z,20.83
2017-09-12T12:16:19.857Z,20.49
2017-09-12T12:17:30.305Z,20.19
2017-09-12T12:18:40.309Z,19.9
2017-09-12T12:19:50.433Z,19.64
2017-09-12T12:21:01.146Z,19.35
2017-09-12T12:22:11.727Z,19.13
2017-09-12T12:23:22.293Z,18.87
2017-09-12T12:24:32.725Z,18.65
2017-09-12T12:25:43.275Z,18.4
2017-09-12T12:26:53.974Z,18.15
2017-09-12T12:28:04.416Z,18
2017-09-12T12:29:14.947Z,17.89
2017-09-12T12:30:25.444Z,17.67
2017-09-12T12:31:35.938Z,17.5
2017-09-12T12:32:46.618Z,17.27
2017-09-12T12:33:57.109Z,17.08
2017-09-12T12:35:07.575Z,16.93
2017-09-12T12:36:18.146Z,16.8
2017-09-12T12:37:28.587Z,16.68
2017-09-12T12:38:39.380Z,16.61
2017-09-12T12:39:49.877Z,16.49
2017-09-12T12:41:01.322Z,16.39
2017-09-12T12:42:11.761Z,16.36
2017-09-12T12:43:22.880Z,16.32
2017-09-12T12:44:33.570Z,16.2
2017-09-12T12:45:43.741Z,16.19
2017-09-12T12:46:53.870Z,16.2
2017-09-12T12:48:04.325Z,16.17
2017-09-12T12:49:14.768Z,16.14
2017-09-12T12:50:25.550Z,16.17
2017-09-12T12:51:36.007Z,16.14
2017-09-12T12:52:46.492Z,16.32
2017-09-12T12:53:57.160Z,16.34
2017-09-12T12:55:07.617Z,16.38
2017-09-12T12:56:18.306Z,16.49
2017-09-12T12:57:28.529Z,16.5
2017-09-12T12:58:38.980Z,16.56
2017-09-12T12:59:48.876Z,16.64
2017-09-12T13:00:59.324Z,16.82
2017-09-12T13:02:10.011Z,16.99
2017-09-12T13:03:20.574Z,17.09
2017-09-12T13:04:31.009Z,17.4
2017-09-12T13:05:41.574Z,17.62
2017-09-12T13:06:52.053Z,17.91
2017-09-12T13:08:02.758Z,18.01
2017-09-12T13:09:13.209Z,18.23
2017-09-12T13:10:23.733Z,18.46
2017-09-12T13:11:34.173Z,18.6
2017-09-12T13:12:44.649Z,18.79
2017-09-12T13:13:55.393Z,18.88
2017-09-12T13:15:05.727Z,18.97
2017-09-12T13:16:16.373Z,18.93
2017-09-12T13:17:26.899Z,18.8
2017-09-12T13:18:36.963Z,18.57
2017-09-12T13:19:47.643Z,18.52
2017-09-12T13:20:58.102Z,18.42
2017-09-12T13:22:08.451Z,18.38
2017-09-12T13:23:18.983Z,18.4
2017-09-12T13:24:29.037Z,18.38
2017-09-12T13:25:39.734Z,18.32
2017-09-12T13:26:50.289Z,18.42
2017-09-12T13:28:00.731Z,18.34
2017-09-12T13:29:11.250Z,18.3
2017-09-12T13:30:21.424Z,18.12
2017-09-12T13:31:31.818Z,18.04
2017-09-12T13:32:42.325Z,17.98
2017-09-12T13:33:52.768Z,17.98
2017-09-12T13:35:03.255Z,17.85
2017-09-12T13:36:13.698Z,17.7
2017-09-12T13:37:24.109Z,17.47
2017-09-12T13:38:34.548Z,17.24
2017-09-12T13:39:45.280Z,17.06
2017-09-12T13:40:55.818Z,17.01
2017-09-12T13:42:06.318Z,16.93
2017-09-12T13:43:16.820Z,16.9
2017-09-12T13:44:27.281Z,16.93
2017-09-12T13:45:37.726Z,16.99
2017-09-12T13:46:48.168Z,16.99
2017-09-12T13:47:58.819Z,17.12
2017-09-12T13:49:09.827Z,17.16
2017-09-12T13:50:20.265Z,17.4
2017-09-12T13:51:30.738Z,17.5
2017-09-12T13:52:41.209Z,17.55
2017-09-12T13:53:51.688Z,17.72
2017-09-12T13:55:02.406Z,17.87
2017-09-12T13:56:12.856Z,17.83
2017-09-12T13:57:23.323Z,17.89
2017-09-12T13:58:33.537Z,17.89
2017-09-12T13:59:43.788Z,17.87
2017-09-12T14:00:54.529Z,17.95
2017-09-12T14:02:04.986Z,18.01
2017-09-12T14:03:15.515Z,17.95
2017-09-12T14:04:25.655Z,17.92
2017-09-12T14:05:36.103Z,17.94
2017-09-12T14:06:46.843Z,17.97
2017-09-12T14:07:57.400Z,17.97
2017-09-12T14:09:07.873Z,17.98
2017-09-12T14:10:18.321Z,18.01
2017-09-12T14:11:28.799Z,18.04
2017-09-12T14:12:39.629Z,18.02
2017-09-12T14:13:50.084Z,18.02
2017-09-12T14:15:00.545Z,18.1
2017-09-12T14:16:10.692Z,18.13
2017-09-12T14:17:21.164Z,18.16
2017-09-12T14:18:31.892Z,18.2
2017-09-12T14:19:42.361Z,18.19
2017-09-12T14:20:52.828Z,18.1
2017-09-12T14:22:03.526Z,18.16
2017-09-12T14:23:13.978Z,18
2017-09-12T14:24:24.787Z,17.89
2017-09-12T14:25:34.916Z,18
2017-09-12T14:26:45.365Z,17.86
2017-09-12T14:27:55.926Z,17.87
2017-09-12T14:29:06.055Z,17.85
2017-09-12T14:30:16.984Z,17.89
2017-09-12T14:31:26.715Z,17.86
2017-09-12T14:32:37.158Z,17.91
2017-09-12T14:33:47.683Z,17.92
2017-09-12T14:34:58.148Z,17.97
2017-09-12T14:36:08.892Z,17.95
2017-09-12T14:37:19.449Z,18.02
2017-09-12T14:38:29.920Z,18.01
2017-09-12T14:39:40.372Z,18.02
2017-09-12T14:40:50.520Z,18.15
2017-09-12T14:42:00.805Z,18.16
2017-09-12T14:43:11.267Z,18.1
2017-09-12T14:44:21.735Z,18.12
2017-09-12T14:45:33.184Z,18.12
2017-09-12T14:46:43.368Z,18.01
2017-09-12T14:47:54.109Z,18
2017-09-12T14:49:04.601Z,18.04
2017-09-12T14:50:15.068Z,17.98
2017-09-12T14:51:25.564Z,18
2017-09-12T14:52:35.720Z,17.94
2017-09-12T14:53:46.462Z,18.02
2017-09-12T14:54:56.957Z,17.97
2017-09-12T14:56:07.509Z,17.95
2017-09-12T14:57:17.991Z,17.91
2017-09-12T14:58:28.484Z,17.89
2017-09-12T14:59:39.234Z,17.86
2017-09-12T15:00:49.710Z,17.72
2017-09-12T15:01:59.848Z,17.75
2017-09-12T15:03:10.321Z,17.62
2017-09-12T15:04:21.757Z,17.6
2017-09-12T15:05:32.453Z,17.5
2017-09-12T15:06:42.926Z,17.5
2017-09-12T15:07:53.429Z,17.47
2017-09-12T15:09:03.920Z,17.47
2017-09-12T15:10:14.393Z,17.43
2017-09-12T15:11:25.198Z,17.4
2017-09-12T15:12:35.949Z,17.36
2017-09-12T15:13:46.431Z,17.3